ESDF/RNB METAR and TAF weather

Enter ICAO airport designator
Station Type Date Time Source
ESDF METAR 2019/02/21 15:50 UTC NOAA

ESDF 211550Z 09010KT 4000 -SN BR OVC005 01/00 Q1020


Station Type Date Time Source
ESDF Decoded METAR 2019/02/21 15:50 UTC NOAA

Ronneby, Sweden (ESDF) 56-16N 015-17E 74M
Feb 21, 2019 - 10:50 AM EST / 2019.02.21 1550 UTC
Wind: from the E (090 degrees) at 12 MPH (10 KT):0
Visibility: 2 mile(s):0
Sky conditions: overcast
Weather: light snow; mist
Temperature: 33 F (1 C)
Windchill: 24 F (-4 C):1
Dew Point: 32 F (0 C)
Relative Humidity: 93%
Pressure (altimeter): 30.12 in. Hg (1020 hPa)
ob: ESDF 211550Z 09010KT 4000 -SN BR OVC005 01/00 Q1020
cycle: 16

Station Type Date Time Source
ESDF TAF 2018/05/29 12:27 UTC NOAA

TAF TAF ESDF 291425Z 2912/2924 07008KT CAVOK
RMK MIL


Example: see airport list